sensor_id;sensor_type;location;lat;lon;timestamp;pressure;altitude;pressure_sealevel;temperature;humidity
10921;BME280;5513;50.580;8.818;2022-07-23T00:01:34;99040.16;;;21.02;100.00
10921;BME280;5513;50.580;8.818;2022-07-23T00:04:02;99040.50;;;20.91;100.00
10921;BME280;5513;50.580;8.818;2022-07-23T00:06:31;99037.31;;;20.96;100.00
10921;BME280;5513;50.580;8.818;2022-07-23T00:08:59;99055.00;;;21.14;100.00
10921;BME280;5513;50.580;8.818;2022-07-23T00:11:28;99072.16;;;21.22;100.00
10921;BME280;5513;50.580;8.818;2022-07-23T00:13:56;99086.63;;;20.96;100.00
10921;BME280;5513;50.580;8.818;2022-07-23T00:16:25;99092.19;;;20.86;100.00
10921;BME280;5513;50.580;8.818;2022-07-23T00:18:54;99089.81;;;20.75;100.00
10921;BME280;5513;50.580;8.818;2022-07-23T00:21:23;99087.84;;;20.43;100.00
10921;BME280;5513;50.580;8.818;2022-07-23T00:23:51;99077.69;;;20.29;100.00
10921;BME280;5513;50.580;8.818;2022-07-23T00:26:19;99094.44;;;20.23;100.00
10921;BME280;5513;50.580;8.818;2022-07-23T00:28:48;99092.56;;;20.15;100.00
10921;BME280;5513;50.580;8.818;2022-07-23T00:31:16;99070.78;;;19.92;100.00
10921;BME280;5513;50.580;8.818;2022-07-23T00:33:45;99077.63;;;19.87;100.00
10921;BME280;5513;50.580;8.818;2022-07-23T00:36:14;99080.91;;;19.72;100.00
10921;BME280;5513;50.580;8.818;2022-07-23T00:38:43;99056.88;;;19.71;100.00
10921;BME280;5513;50.580;8.818;2022-07-23T00:41:11;99050.22;;;19.57;100.00
10921;BME280;5513;50.580;8.818;2022-07-23T00:43:39;99048.94;;;19.43;100.00
10921;BME280;5513;50.580;8.818;2022-07-23T00:46:07;99051.50;;;19.27;100.00
10921;BME280;5513;50.580;8.818;2022-07-23T00:48:36;99051.94;;;19.40;100.00
10921;BME280;5513;50.580;8.818;2022-07-23T00:51:05;99051.84;;;19.50;100.00
10921;BME280;5513;50.580;8.818;2022-07-23T00:53:35;99046.94;;;19.45;100.00
10921;BME280;5513;50.580;8.818;2022-07-23T00:56:04;99042.53;;;19.62;100.00
10921;BME280;5513;50.580;8.818;2022-07-23T00:58:35;99059.50;;;19.63;100.00
10921;BME280;5513;50.580;8.818;2022-07-23T01:01:03;99056.69;;;19.47;100.00
10921;BME280;5513;50.580;8.818;2022-07-23T01:03:32;99047.66;;;19.30;100.00
10921;BME280;5513;50.580;8.818;2022-07-23T01:06:00;99050.13;;;19.49;100.00
10921;BME280;5513;50.580;8.818;2022-07-23T01:08:29;99045.75;;;19.40;100.00
10921;BME280;5513;50.580;8.818;2022-07-23T01:10:59;99048.19;;;19.33;100.00
10921;BME280;5513;50.580;8.818;2022-07-23T01:13:27;99041.44;;;19.29;100.00
10921;BME280;5513;50.580;8.818;2022-07-23T01:15:57;99036.13;;;19.37;100.00
10921;BME280;5513;50.580;8.818;2022-07-23T01:18:25;99032.81;;;19.61;100.00
10921;BME280;5513;50.580;8.818;2022-07-23T01:20:53;99021.25;;;19.69;100.00
10921;BME280;5513;50.580;8.818;2022-07-23T01:23:23;99013.38;;;19.76;100.00
10921;BME280;5513;50.580;8.818;2022-07-23T01:25:52;99017.19;;;19.65;100.00
10921;BME280;5513;50.580;8.818;2022-07-23T01:28:21;99016.19;;;19.66;100.00
10921;BME280;5513;50.580;8.818;2022-07-23T01:30:49;99020.41;;;19.42;100.00
10921;BME280;5513;50.580;8.818;2022-07-23T01:33:18;99028.16;;;19.28;100.00
10921;BME280;5513;50.580;8.818;2022-07-23T01:35:46;99020.22;;;19.18;100.00
10921;BME280;5513;50.580;8.818;2022-07-23T01:38:14;99020.09;;;19.28;100.00
10921;BME280;5513;50.580;8.818;2022-07-23T01:40:44;99027.03;;;19.30;100.00
10921;BME280;5513;50.580;8.818;2022-07-23T01:43:19;99027.03;;;19.30;100.00
10921;BME280;5513;50.580;8.818;2022-07-23T01:45:51;99036.78;;;19.31;100.00
10921;BME280;5513;50.580;8.818;2022-07-23T01:48:19;99042.25;;;19.48;100.00
10921;BME280;5513;50.580;8.818;2022-07-23T01:50:48;99035.72;;;19.50;100.00
10921;BME280;5513;50.580;8.818;2022-07-23T01:53:16;99038.81;;;19.37;100.00
10921;BME280;5513;50.580;8.818;2022-07-23T01:55:46;99029.50;;;19.24;100.00
10921;BME280;5513;50.580;8.818;2022-07-23T01:58:14;99028.06;;;19.37;100.00
10921;BME280;5513;50.580;8.818;2022-07-23T02:00:42;99022.00;;;19.35;100.00
10921;BME280;5513;50.580;8.818;2022-07-23T02:03:10;99017.66;;;19.34;100.00
10921;BME280;5513;50.580;8.818;2022-07-23T02:05:38;99023.53;;;19.38;100.00
10921;BME280;5513;50.580;8.818;2022-07-23T02:08:07;99018.19;;;19.20;100.00
10921;BME280;5513;50.580;8.818;2022-07-23T02:10:35;99008.34;;;19.29;100.00
10921;BME280;5513;50.580;8.818;2022-07-23T02:13:05;99030.00;;;19.27;100.00
10921;BME280;5513;50.580;8.818;2022-07-23T02:15:34;99038.22;;;19.26;100.00
10921;BME280;5513;50.580;8.818;2022-07-23T02:18:03;99042.25;;;19.04;100.00
10921;BME280;5513;50.580;8.818;2022-07-23T02:20:31;99049.06;;;18.98;100.00
10921;BME280;5513;50.580;8.818;2022-07-23T02:23:00;99053.59;;;18.98;100.00
10921;BME280;5513;50.580;8.818;2022-07-23T02:25:28;99047.78;;;19.02;100.00
10921;BME280;5513;50.580;8.818;2022-07-23T02:27:57;99053.31;;;18.83;100.00
10921;BME280;5513;50.580;8.818;2022-07-23T02:30:26;99061.50;;;18.81;100.00
10921;BME280;5513;50.580;8.818;2022-07-23T02:32:55;99052.53;;;18.73;100.00
10921;BME280;5513;50.580;8.818;2022-07-23T02:35:23;99064.66;;;18.77;100.00
10921;BME280;5513;50.580;8.818;2022-07-23T02:37:51;99061.81;;;18.78;100.00
10921;BME280;5513;50.580;8.818;2022-07-23T02:40:19;99073.31;;;18.88;100.00
10921;BME280;5513;50.580;8.818;2022-07-23T02:42:48;99083.03;;;18.90;100.00
10921;BME280;5513;50.580;8.818;2022-07-23T02:45:16;99085.44;;;18.93;100.00
10921;BME280;5513;50.580;8.818;2022-07-23T02:47:46;99085.28;;;18.94;100.00
10921;BME280;5513;50.580;8.818;2022-07-23T02:50:14;99094.94;;;18.87;100.00
10921;BME280;5513;50.580;8.818;2022-07-23T02:52:43;99092.94;;;18.89;100.00
10921;BME280;5513;50.580;8.818;2022-07-23T02:55:11;99095.41;;;18.55;100.00
10921;BME280;5513;50.580;8.818;2022-07-23T02:57:40;99100.31;;;18.59;100.00
10921;BME280;5513;50.580;8.818;2022-07-23T03:00:09;99089.31;;;18.35;100.00
10921;BME280;5513;50.580;8.818;2022-07-23T03:02:37;99085.06;;;18.33;100.00
10921;BME280;5513;50.580;8.818;2022-07-23T03:05:09;99082.06;;;18.18;100.00
10921;BME280;5513;50.580;8.818;2022-07-23T03:07:38;99099.19;;;18.35;100.00
10921;BME280;5513;50.580;8.818;2022-07-23T03:10:06;99103.41;;;18.37;100.00
10921;BME280;5513;50.580;8.818;2022-07-23T03:12:35;99106.94;;;18.38;100.00
10921;BME280;5513;50.580;8.818;2022-07-23T03:15:04;99108.13;;;18.25;100.00
10921;BME280;5513;50.580;8.818;2022-07-23T03:17:32;99121.28;;;18.19;100.00
10921;BME280;5513;50.580;8.818;2022-07-23T03:20:00;99116.06;;;18.17;100.00
10921;BME280;5513;50.580;8.818;2022-07-23T03:22:30;99133.53;;;18.21;100.00
10921;BME280;5513;50.580;8.818;2022-07-23T03:24:58;99130.56;;;18.52;100.00
10921;BME280;5513;50.580;8.818;2022-07-23T03:27:28;99117.16;;;18.52;100.00
10921;BME280;5513;50.580;8.818;2022-07-23T03:29:57;99125.66;;;18.47;100.00
10921;BME280;5513;50.580;8.818;2022-07-23T03:32:26;99117.66;;;18.38;100.00
10921;BME280;5513;50.580;8.818;2022-07-23T03:34:54;99110.56;;;18.19;100.00
10921;BME280;5513;50.580;8.818;2022-07-23T03:37:23;99107.41;;;18.23;100.00
10921;BME280;5513;50.580;8.818;2022-07-23T03:39:53;99100.97;;;18.16;100.00
10921;BME280;5513;50.580;8.818;2022-07-23T03:42:21;99104.03;;;18.49;100.00
10921;BME280;5513;50.580;8.818;2022-07-23T03:44:50;99106.03;;;18.47;100.00
10921;BME280;5513;50.580;8.818;2022-07-23T03:47:18;99111.41;;;18.74;100.00
10921;BME280;5513;50.580;8.818;2022-07-23T03:49:48;99112.84;;;18.69;100.00
10921;BME280;5513;50.580;8.818;2022-07-23T03:52:17;99118.81;;;18.63;100.00
10921;BME280;5513;50.580;8.818;2022-07-23T03:54:45;99115.22;;;18.72;100.00
10921;BME280;5513;50.580;8.818;2022-07-23T03:57:15;99129.59;;;18.80;100.00
10921;BME280;5513;50.580;8.818;2022-07-23T03:59:43;99137.44;;;18.92;100.00
10921;BME280;5513;50.580;8.818;2022-07-23T04:02:11;99126.63;;;18.83;100.00
10921;BME280;5513;50.580;8.818;2022-07-23T04:04:40;99125.09;;;18.99;100.00
10921;BME280;5513;50.580;8.818;2022-07-23T04:07:10;99130.59;;;18.79;100.00
10921;BME280;5513;50.580;8.818;2022-07-23T04:09:38;99134.66;;;18.83;100.00
10921;BME280;5513;50.580;8.818;2022-07-23T04:12:11;99132.97;;;18.82;100.00
10921;BME280;5513;50.580;8.818;2022-07-23T04:14:41;99134.28;;;18.96;100.00
10921;BME280;5513;50.580;8.818;2022-07-23T04:17:09;99143.34;;;18.95;100.00
10921;BME280;5513;50.580;8.818;2022-07-23T04:19:38;99131.91;;;18.38;100.00
10921;BME280;5513;50.580;8.818;2022-07-23T04:22:08;99140.44;;;18.51;100.00
10921;BME280;5513;50.580;8.818;2022-07-23T04:24:37;99132.72;;;18.48;100.00
10921;BME280;5513;50.580;8.818;2022-07-23T04:27:05;99127.34;;;18.48;100.00
10921;BME280;5513;50.580;8.818;2022-07-23T04:29:33;99132.03;;;18.74;100.00
10921;BME280;5513;50.580;8.818;2022-07-23T04:32:04;99129.28;;;18.56;100.00
10921;BME280;5513;50.580;8.818;2022-07-23T04:34:32;99125.75;;;18.65;100.00
10921;BME280;5513;50.580;8.818;2022-07-23T04:37:00;99134.47;;;18.67;100.00
10921;BME280;5513;50.580;8.818;2022-07-23T04:39:29;99131.34;;;18.62;100.00
10921;BME280;5513;50.580;8.818;2022-07-23T04:41:57;99133.44;;;18.41;100.00
10921;BME280;5513;50.580;8.818;2022-07-23T04:44:26;99138.59;;;18.52;100.00
10921;BME280;5513;50.580;8.818;2022-07-23T04:46:54;99142.84;;;18.54;100.00
10921;BME280;5513;50.580;8.818;2022-07-23T04:49:24;99139.00;;;18.29;100.00
10921;BME280;5513;50.580;8.818;2022-07-23T04:51:52;99130.88;;;18.49;100.00
10921;BME280;5513;50.580;8.818;2022-07-23T04:54:20;99132.22;;;18.63;100.00
10921;BME280;5513;50.580;8.818;2022-07-23T04:56:48;99132.50;;;18.59;100.00
10921;BME280;5513;50.580;8.818;2022-07-23T04:59:16;99131.66;;;18.59;100.00
10921;BME280;5513;50.580;8.818;2022-07-23T05:01:44;99121.63;;;18.61;100.00
10921;BME280;5513;50.580;8.818;2022-07-23T05:04:13;99120.41;;;18.55;100.00
10921;BME280;5513;50.580;8.818;2022-07-23T05:06:43;99115.94;;;18.74;100.00
10921;BME280;5513;50.580;8.818;2022-07-23T05:09:12;99108.91;;;18.63;100.00
10921;BME280;5513;50.580;8.818;2022-07-23T05:11:41;99117.78;;;18.73;100.00
10921;BME280;5513;50.580;8.818;2022-07-23T05:14:10;99125.53;;;18.76;100.00
10921;BME280;5513;50.580;8.818;2022-07-23T05:16:39;99128.28;;;18.67;100.00
10921;BME280;5513;50.580;8.818;2022-07-23T05:19:07;99135.00;;;18.71;100.00
10921;BME280;5513;50.580;8.818;2022-07-23T05:21:35;99144.13;;;19.05;100.00
10921;BME280;5513;50.580;8.818;2022-07-23T05:24:06;99140.28;;;19.08;100.00
10921;BME280;5513;50.580;8.818;2022-07-23T05:26:34;99138.22;;;19.02;100.00
10921;BME280;5513;50.580;8.818;2022-07-23T05:29:03;99139.34;;;18.99;100.00
10921;BME280;5513;50.580;8.818;2022-07-23T05:31:32;99137.59;;;19.26;100.00
10921;BME280;5513;50.580;8.818;2022-07-23T05:34:00;99130.91;;;19.48;100.00
10921;BME280;5513;50.580;8.818;2022-07-23T05:36:29;99117.72;;;19.36;100.00
10921;BME280;5513;50.580;8.818;2022-07-23T05:38:59;99111.66;;;19.16;100.00
10921;BME280;5513;50.580;8.818;2022-07-23T05:41:29;99117.72;;;19.36;100.00
10921;BME280;5513;50.580;8.818;2022-07-23T05:43:57;99111.31;;;19.55;100.00
10921;BME280;5513;50.580;8.818;2022-07-23T05:46:25;99115.25;;;19.87;100.00
10921;BME280;5513;50.580;8.818;2022-07-23T05:48:54;99111.16;;;19.75;100.00
10921;BME280;5513;50.580;8.818;2022-07-23T05:51:23;99111.72;;;19.60;100.00
10921;BME280;5513;50.580;8.818;2022-07-23T05:53:51;99116.25;;;19.60;100.00
10921;BME280;5513;50.580;8.818;2022-07-23T05:56:20;99113.56;;;19.42;100.00
10921;BME280;5513;50.580;8.818;2022-07-23T05:58:50;99115.00;;;19.54;100.00
10921;BME280;5513;50.580;8.818;2022-07-23T06:01:18;99110.47;;;19.55;100.00
10921;BME280;5513;50.580;8.818;2022-07-23T06:03:46;99119.59;;;19.80;100.00
10921;BME280;5513;50.580;8.818;2022-07-23T06:06:15;99120.72;;;19.77;100.00
10921;BME280;5513;50.580;8.818;2022-07-23T06:08:43;99107.28;;;20.03;100.00
10921;BME280;5513;50.580;8.818;2022-07-23T06:11:11;99112.31;;;19.98;100.00
10921;BME280;5513;50.580;8.818;2022-07-23T06:13:40;99119.09;;;20.10;100.00
10921;BME280;5513;50.580;8.818;2022-07-23T06:16:10;99115.50;;;20.27;100.00
10921;BME280;5513;50.580;8.818;2022-07-23T06:18:39;99114.28;;;20.22;100.00
10921;BME280;5513;50.580;8.818;2022-07-23T06:21:08;99118.69;;;20.31;100.00
10921;BME280;5513;50.580;8.818;2022-07-23T06:23:56;99117.47;;;20.17;100.00
10921;BME280;5513;50.580;8.818;2022-07-23T06:26:24;99113.19;;;20.41;100.00
10921;BME280;5513;50.580;8.818;2022-07-23T06:28:52;99118.00;;;20.63;100.00
10921;BME280;5513;50.580;8.818;2022-07-23T06:31:22;99113.31;;;20.73;100.00
10921;BME280;5513;50.580;8.818;2022-07-23T06:33:50;99117.94;;;20.89;100.00
10921;BME280;5513;50.580;8.818;2022-07-23T06:36:19;99125.38;;;21.11;100.00
10921;BME280;5513;50.580;8.818;2022-07-23T06:38:48;99126.06;;;21.13;100.00
10921;BME280;5513;50.580;8.818;2022-07-23T06:41:19;99133.25;;;20.89;100.00
10921;BME280;5513;50.580;8.818;2022-07-23T06:43:47;99130.16;;;21.34;100.00
10921;BME280;5513;50.580;8.818;2022-07-23T06:46:15;99138.22;;;21.42;100.00
10921;BME280;5513;50.580;8.818;2022-07-23T06:48:45;99137.22;;;21.27;100.00
10921;BME280;5513;50.580;8.818;2022-07-23T06:51:13;99147.59;;;21.22;100.00
10921;BME280;5513;50.580;8.818;2022-07-23T06:53:41;99151.16;;;21.14;100.00
10921;BME280;5513;50.580;8.818;2022-07-23T06:56:09;99150.50;;;21.28;100.00
10921;BME280;5513;50.580;8.818;2022-07-23T06:58:38;99161.13;;;21.30;100.00
10921;BME280;5513;50.580;8.818;2022-07-23T07:01:06;99153.22;;;21.28;100.00
10921;BME280;5513;50.580;8.818;2022-07-23T07:03:35;99163.50;;;21.33;100.00
10921;BME280;5513;50.580;8.818;2022-07-23T07:06:05;99172.59;;;21.56;100.00
10921;BME280;5513;50.580;8.818;2022-07-23T07:08:34;99174.47;;;21.56;100.00
10921;BME280;5513;50.580;8.818;2022-07-23T07:11:02;99169.91;;;21.64;100.00
10921;BME280;5513;50.580;8.818;2022-07-23T07:13:31;99159.97;;;21.81;100.00
10921;BME280;5513;50.580;8.818;2022-07-23T07:15:59;99168.38;;;21.94;100.00
10921;BME280;5513;50.580;8.818;2022-07-23T07:18:27;99176.47;;;21.94;100.00
10921;BME280;5513;50.580;8.818;2022-07-23T07:20:56;99181.38;;;21.91;100.00
10921;BME280;5513;50.580;8.818;2022-07-23T07:25:54;99170.88;;;22.04;100.00
10921;BME280;5513;50.580;8.818;2022-07-23T07:28:23;99179.31;;;22.09;100.00
10921;BME280;5513;50.580;8.818;2022-07-23T07:30:51;99187.91;;;21.88;100.00
10921;BME280;5513;50.580;8.818;2022-07-23T07:33:19;99188.13;;;22.11;100.00
10921;BME280;5513;50.580;8.818;2022-07-23T07:35:48;99196.53;;;22.08;100.00
10921;BME280;5513;50.580;8.818;2022-07-23T07:38:16;99197.88;;;21.63;100.00
10921;BME280;5513;50.580;8.818;2022-07-23T07:40:46;99203.75;;;21.99;100.00
10921;BME280;5513;50.580;8.818;2022-07-23T07:43:16;99200.25;;;22.15;100.00
10921;BME280;5513;50.580;8.818;2022-07-23T07:45:44;99206.78;;;22.29;100.00
10921;BME280;5513;50.580;8.818;2022-07-23T07:48:12;99202.38;;;22.44;100.00
10921;BME280;5513;50.580;8.818;2022-07-23T07:50:40;99207.09;;;22.42;100.00
10921;BME280;5513;50.580;8.818;2022-07-23T07:53:09;99205.41;;;22.49;100.00
10921;BME280;5513;50.580;8.818;2022-07-23T07:55:37;99205.53;;;22.56;100.00
10921;BME280;5513;50.580;8.818;2022-07-23T07:58:07;99207.09;;;22.42;100.00
10921;BME280;5513;50.580;8.818;2022-07-23T08:00:35;99208.38;;;22.63;100.00
10921;BME280;5513;50.580;8.818;2022-07-23T08:03:04;99210.91;;;22.64;100.00
10921;BME280;5513;50.580;8.818;2022-07-23T08:05:32;99208.75;;;22.60;100.00
10921;BME280;5513;50.580;8.818;2022-07-23T08:08:00;99202.25;;;22.77;100.00
10921;BME280;5513;50.580;8.818;2022-07-23T08:10:29;99213.66;;;23.03;100.00
10921;BME280;5513;50.580;8.818;2022-07-23T08:12:59;99208.63;;;22.92;100.00
10921;BME280;5513;50.580;8.818;2022-07-23T08:15:29;99209.84;;;22.81;100.00
10921;BME280;5513;50.580;8.818;2022-07-23T08:17:58;99211.22;;;23.17;100.00
10921;BME280;5513;50.580;8.818;2022-07-23T08:20:27;99208.81;;;23.22;100.00
10921;BME280;5513;50.580;8.818;2022-07-23T08:22:57;99215.16;;;23.37;100.00
10921;BME280;5513;50.580;8.818;2022-07-23T08:25:28;99217.31;;;23.41;100.00
10921;BME280;5513;50.580;8.818;2022-07-23T08:27:57;99215.25;;;23.43;100.00
10921;BME280;5513;50.580;8.818;2022-07-23T08:30:26;99215.41;;;23.50;100.00
10921;BME280;5513;50.580;8.818;2022-07-23T08:32:58;99219.53;;;23.69;100.00
10921;BME280;5513;50.580;8.818;2022-07-23T08:35:29;99227.16;;;23.88;100.00
10921;BME280;5513;50.580;8.818;2022-07-23T08:37:58;99226.53;;;23.24;100.00
10921;BME280;5513;50.580;8.818;2022-07-23T08:40:29;99229.13;;;23.72;100.00
10921;BME280;5513;50.580;8.818;2022-07-23T08:42:58;99228.03;;;23.81;100.00
10921;BME280;5513;50.580;8.818;2022-07-23T08:45:27;99226.97;;;23.90;100.00
10921;BME280;5513;50.580;8.818;2022-07-23T08:47:58;99235.25;;;23.34;100.00
10921;BME280;5513;50.580;8.818;2022-07-23T08:50:28;99236.72;;;23.76;100.00
10921;BME280;5513;50.580;8.818;2022-07-23T08:52:58;99239.22;;;24.01;100.00
10921;BME280;5513;50.580;8.818;2022-07-23T08:55:27;99244.34;;;23.95;100.00
10921;BME280;5513;50.580;8.818;2022-07-23T08:57:56;99237.06;;;23.96;100.00
10921;BME280;5513;50.580;8.818;2022-07-23T09:00:24;99237.78;;;24.13;100.00
10921;BME280;5513;50.580;8.818;2022-07-23T09:02:53;99239.53;;;23.83;100.00
10921;BME280;5513;50.580;8.818;2022-07-23T09:05:26;99241.22;;;24.21;100.00
10921;BME280;5513;50.580;8.818;2022-07-23T09:08:07;99239.44;;;23.76;100.00
10921;BME280;5513;50.580;8.818;2022-07-23T09:10:44;99232.69;;;23.95;100.00
10921;BME280;5513;50.580;8.818;2022-07-23T09:13:31;99237.78;;;24.27;100.00
10921;BME280;5513;50.580;8.818;2022-07-23T09:16:03;99238.63;;;24.13;100.00
10921;BME280;5513;50.580;8.818;2022-07-23T09:18:34;99235.47;;;24.24;100.00
10921;BME280;5513;50.580;8.818;2022-07-23T09:21:15;99228.44;;;24.82;100.00
10921;BME280;5513;50.580;8.818;2022-07-23T09:23:45;99229.81;;;25.08;96.76
10921;BME280;5513;50.580;8.818;2022-07-23T09:26:21;99231.59;;;24.86;96.13
10921;BME280;5513;50.580;8.818;2022-07-23T09:28:55;99233.50;;;25.36;96.86
10921;BME280;5513;50.580;8.818;2022-07-23T09:31:25;99236.81;;;24.58;99.17
10921;BME280;5513;50.580;8.818;2022-07-23T09:34:17;99241.69;;;24.77;99.41
10921;BME280;5513;50.580;8.818;2022-07-23T09:36:52;99244.13;;;24.72;100.00
10921;BME280;5513;50.580;8.818;2022-07-23T09:39:27;99242.84;;;25.34;98.10
10921;BME280;5513;50.580;8.818;2022-07-23T09:41:56;99237.13;;;25.44;97.84
10921;BME280;5513;50.580;8.818;2022-07-23T09:44:24;99233.44;;;25.87;95.66
10921;BME280;5513;50.580;8.818;2022-07-23T09:46:58;99239.19;;;25.78;92.52
10921;BME280;5513;50.580;8.818;2022-07-23T09:49:27;99246.44;;;25.56;93.26
10921;BME280;5513;50.580;8.818;2022-07-23T09:52:00;99239.22;;;25.27;92.60
10921;BME280;5513;50.580;8.818;2022-07-23T09:54:33;99240.06;;;25.85;89.53
10921;BME280;5513;50.580;8.818;2022-07-23T09:57:06;99239.28;;;26.12;90.79
10921;BME280;5513;50.580;8.818;2022-07-23T09:59:42;99234.88;;;25.11;95.17
10921;BME280;5513;50.580;8.818;2022-07-23T10:02:13;99243.47;;;25.51;97.40
10921;BME280;5513;50.580;8.818;2022-07-23T10:04:42;99241.84;;;26.20;90.90
10921;BME280;5513;50.580;8.818;2022-07-23T10:07:13;99236.09;;;26.30;84.59
10921;BME280;5513;50.580;8.818;2022-07-23T10:09:45;99239.81;;;26.50;84.71
10921;BME280;5513;50.580;8.818;2022-07-23T10:12:15;99244.47;;;26.57;78.97
10921;BME280;5513;50.580;8.818;2022-07-23T10:15:06;99239.94;;;26.70;81.24
10921;BME280;5513;50.580;8.818;2022-07-23T10:17:35;99230.72;;;26.65;84.02
10921;BME280;5513;50.580;8.818;2022-07-23T10:20:05;99234.00;;;26.32;86.79
10921;BME280;5513;50.580;8.818;2022-07-23T10:22:38;99223.72;;;26.84;83.87
10921;BME280;5513;50.580;8.818;2022-07-23T10:25:13;99230.03;;;27.32;81.09
10921;BME280;5513;50.580;8.818;2022-07-23T10:28:13;99225.88;;;27.43;84.01
10921;BME280;5513;50.580;8.818;2022-07-23T10:30:59;99219.25;;;27.10;86.12
10921;BME280;5513;50.580;8.818;2022-07-23T10:33:36;99228.88;;;27.67;82.30
10921;BME280;5513;50.580;8.818;2022-07-23T10:36:11;99229.94;;;27.73;78.90
10921;BME280;5513;50.580;8.818;2022-07-23T10:38:48;99224.06;;;27.76;81.32
10921;BME280;5513;50.580;8.818;2022-07-23T10:41:31;99211.53;;;27.95;81.23
10921;BME280;5513;50.580;8.818;2022-07-23T10:44:11;99212.91;;;27.51;82.76
10921;BME280;5513;50.580;8.818;2022-07-23T10:46:56;99219.03;;;27.66;84.01
10921;BME280;5513;50.580;8.818;2022-07-23T10:49:43;99224.94;;;28.03;78.70
10921;BME280;5513;50.580;8.818;2022-07-23T10:52:23;99217.69;;;27.36;81.59
10921;BME280;5513;50.580;8.818;2022-07-23T10:54:55;99224.50;;;27.73;80.68
10921;BME280;5513;50.580;8.818;2022-07-23T10:57:25;99209.97;;;27.59;81.68
10921;BME280;5513;50.580;8.818;2022-07-23T11:00:12;99207.56;;;28.11;75.34
10921;BME280;5513;50.580;8.818;2022-07-23T11:02:42;99211.56;;;28.28;77.45
10921;BME280;5513;50.580;8.818;2022-07-23T11:05:13;99212.38;;;28.22;77.51
10921;BME280;5513;50.580;8.818;2022-07-23T11:08:17;99207.13;;;28.07;75.00
10921;BME280;5513;50.580;8.818;2022-07-23T11:10:51;99208.53;;;28.76;71.85
10921;BME280;5513;50.580;8.818;2022-07-23T11:13:40;99206.59;;;28.96;73.14
10921;BME280;5513;50.580;8.818;2022-07-23T11:16:20;99195.97;;;29.26;71.59
10921;BME280;5513;50.580;8.818;2022-07-23T11:19:06;99196.28;;;29.43;69.65
10921;BME280;5513;50.580;8.818;2022-07-23T11:21:50;99196.13;;;29.70;68.68
10921;BME280;5513;50.580;8.818;2022-07-23T11:24:20;99194.44;;;29.75;67.87
10921;BME280;5513;50.580;8.818;2022-07-23T11:27:03;99187.91;;;29.76;63.53
10921;BME280;5513;50.580;8.818;2022-07-23T11:29:38;99193.50;;;28.14;73.57
10921;BME280;5513;50.580;8.818;2022-07-23T11:32:40;99198.75;;;28.02;77.62
10921;BME280;5513;50.580;8.818;2022-07-23T11:35:24;99196.22;;;28.07;73.71
10921;BME280;5513;50.580;8.818;2022-07-23T11:38:03;99196.06;;;28.29;73.16
10921;BME280;5513;50.580;8.818;2022-07-23T11:40:32;99200.50;;;28.94;69.91
10921;BME280;5513;50.580;8.818;2022-07-23T11:43:04;99189.69;;;28.68;72.10
10921;BME280;5513;50.580;8.818;2022-07-23T11:45:35;99183.25;;;28.29;73.94
10921;BME280;5513;50.580;8.818;2022-07-23T11:48:08;99192.19;;;28.69;71.35
10921;BME280;5513;50.580;8.818;2022-07-23T11:50:37;99187.47;;;29.41;67.59
10921;BME280;5513;50.580;8.818;2022-07-23T11:53:08;99181.28;;;29.21;67.94
10921;BME280;5513;50.580;8.818;2022-07-23T11:55:37;99187.34;;;28.71;66.95
10921;BME280;5513;50.580;8.818;2022-07-23T11:58:07;99184.59;;;28.78;67.96
10921;BME280;5513;50.580;8.818;2022-07-23T12:00:35;99185.06;;;28.62;68.21
10921;BME280;5513;50.580;8.818;2022-07-23T12:03:08;99179.53;;;29.33;67.22
10921;BME280;5513;50.580;8.818;2022-07-23T12:05:38;99176.41;;;28.91;66.69
10921;BME280;5513;50.580;8.818;2022-07-23T12:08:07;99179.84;;;27.00;75.19
10921;BME280;5513;50.580;8.818;2022-07-23T12:10:38;99184.94;;;28.10;71.72
10921;BME280;5513;50.580;8.818;2022-07-23T12:13:12;99187.84;;;28.15;68.86
10921;BME280;5513;50.580;8.818;2022-07-23T12:15:42;99181.25;;;28.76;65.37
10921;BME280;5513;50.580;8.818;2022-07-23T12:18:12;99183.06;;;29.02;64.14
10921;BME280;5513;50.580;8.818;2022-07-23T12:20:43;99180.50;;;27.96;68.04
10921;BME280;5513;50.580;8.818;2022-07-23T12:23:13;99169.63;;;27.83;68.80
10921;BME280;5513;50.580;8.818;2022-07-23T12:25:47;99172.72;;;28.59;67.91
10921;BME280;5513;50.580;8.818;2022-07-23T12:28:19;99168.25;;;29.61;63.85
10921;BME280;5513;50.580;8.818;2022-07-23T12:30:49;99166.84;;;30.08;60.81
10921;BME280;5513;50.580;8.818;2022-07-23T12:33:23;99177.22;;;30.25;59.86
10921;BME280;5513;50.580;8.818;2022-07-23T12:35:53;99170.22;;;30.29;59.86
10921;BME280;5513;50.580;8.818;2022-07-23T12:38:23;99165.69;;;30.59;57.86
10921;BME280;5513;50.580;8.818;2022-07-23T12:40:53;99167.69;;;30.09;57.87
10921;BME280;5513;50.580;8.818;2022-07-23T12:43:25;99168.75;;;29.83;58.30
10921;BME280;5513;50.580;8.818;2022-07-23T12:45:55;99167.88;;;30.14;57.20
10921;BME280;5513;50.580;8.818;2022-07-23T12:48:27;99166.06;;;30.26;57.54
10921;BME280;5513;50.580;8.818;2022-07-23T12:50:57;99166.16;;;30.56;54.02
10921;BME280;5513;50.580;8.818;2022-07-23T12:53:31;99169.41;;;31.20;52.18
10921;BME280;5513;50.580;8.818;2022-07-23T12:56:04;99167.28;;;30.30;48.62
10921;BME280;5513;50.580;8.818;2022-07-23T12:58:47;99172.75;;;29.49;51.87
10921;BME280;5513;50.580;8.818;2022-07-23T13:01:25;99163.28;;;29.83;53.63
10921;BME280;5513;50.580;8.818;2022-07-23T13:03:59;99162.03;;;30.29;55.71
10921;BME280;5513;50.580;8.818;2022-07-23T13:06:40;99162.63;;;30.74;50.43
10921;BME280;5513;50.580;8.818;2022-07-23T13:09:14;99163.16;;;30.83;48.05
10921;BME280;5513;50.580;8.818;2022-07-23T13:11:42;99161.31;;;31.43;48.03
10921;BME280;5513;50.580;8.818;2022-07-23T13:14:15;99159.69;;;31.24;47.66
10921;BME280;5513;50.580;8.818;2022-07-23T13:16:47;99162.28;;;31.19;47.36
10921;BME280;5513;50.580;8.818;2022-07-23T13:19:18;99163.31;;;29.45;53.56
10921;BME280;5513;50.580;8.818;2022-07-23T13:21:52;99157.13;;;30.37;48.99
10921;BME280;5513;50.580;8.818;2022-07-23T13:24:21;99166.06;;;30.26;48.80